sensor_id;sensor_type;location;lat;lon;timestamp;pressure;altitude;pressure_sealevel;temperature;humidity
12777;BME280;6452;41.572;23.732;2023-02-12T00:01:25;63415.81;;;-142.78;100.00
12777;BME280;6452;41.572;23.732;2023-02-12T00:03:53;63415.81;;;-142.78;100.00
12777;BME280;6452;41.572;23.732;2023-02-12T00:06:19;63415.81;;;-142.78;100.00
12777;BME280;6452;41.572;23.732;2023-02-12T00:08:49;63415.81;;;-142.78;100.00
12777;BME280;6452;41.572;23.732;2023-02-12T00:11:18;63415.81;;;-142.78;100.00
12777;BME280;6452;41.572;23.732;2023-02-12T00:13:45;63415.81;;;-142.78;100.00
12777;BME280;6452;41.572;23.732;2023-02-12T00:16:14;63415.81;;;-142.78;100.00
12777;BME280;6452;41.572;23.732;2023-02-12T00:18:44;63415.81;;;-142.78;100.00
12777;BME280;6452;41.572;23.732;2023-02-12T00:21:12;63415.81;;;-142.78;100.00
12777;BME280;6452;41.572;23.732;2023-02-12T00:23:42;84436.91;;;-142.79;100.00
12777;BME280;6452;41.572;23.732;2023-02-12T00:26:11;84391.75;;;-142.79;100.00
12777;BME280;6452;41.572;23.732;2023-02-12T00:28:38;63415.81;;;-142.78;100.00
12777;BME280;6452;41.572;23.732;2023-02-12T00:31:07;63415.81;;;-142.78;100.00
12777;BME280;6452;41.572;23.732;2023-02-12T00:33:34;84391.75;;;-142.79;100.00
12777;BME280;6452;41.572;23.732;2023-02-12T00:36:01;63415.81;;;-142.78;100.00
12777;BME280;6452;41.572;23.732;2023-02-12T00:38:28;63415.81;;;-142.78;100.00
12777;BME280;6452;41.572;23.732;2023-02-12T00:40:54;63415.81;;;-142.78;100.00
12777;BME280;6452;41.572;23.732;2023-02-12T00:43:20;63415.81;;;-142.78;100.00
12777;BME280;6452;41.572;23.732;2023-02-12T00:45:47;63415.81;;;-142.78;100.00
12777;BME280;6452;41.572;23.732;2023-02-12T00:48:14;63415.81;;;-142.78;100.00
12777;BME280;6452;41.572;23.732;2023-02-12T00:50:46;63415.81;;;-142.78;100.00
12777;BME280;6452;41.572;23.732;2023-02-12T00:53:14;63415.81;;;-142.78;100.00
12777;BME280;6452;41.572;23.732;2023-02-12T00:55:44;63415.81;;;-142.78;100.00
12777;BME280;6452;41.572;23.732;2023-02-12T00:58:14;84436.91;;;-142.79;100.00
12777;BME280;6452;41.572;23.732;2023-02-12T01:00:43;63415.81;;;-142.78;100.00
12777;BME280;6452;41.572;23.732;2023-02-12T01:03:12;63415.81;;;-142.78;100.00
12777;BME280;6452;41.572;23.732;2023-02-12T01:05:38;63415.81;;;-142.78;100.00
12777;BME280;6452;41.572;23.732;2023-02-12T01:08:05;63415.81;;;-142.78;100.00
12777;BME280;6452;41.572;23.732;2023-02-12T01:10:35;63415.81;;;-142.78;100.00
12777;BME280;6452;41.572;23.732;2023-02-12T01:13:03;63415.81;;;-142.78;100.00
12777;BME280;6452;41.572;23.732;2023-02-12T01:15:32;63415.81;;;-142.78;100.00
12777;BME280;6452;41.572;23.732;2023-02-12T01:17:59;63415.81;;;-142.78;100.00
12777;BME280;6452;41.572;23.732;2023-02-12T01:20:26;63415.81;;;-142.78;100.00
12777;BME280;6452;41.572;23.732;2023-02-12T01:22:52;63415.81;;;-142.78;100.00
12777;BME280;6452;41.572;23.732;2023-02-12T01:25:19;63415.81;;;-142.78;100.00
12777;BME280;6452;41.572;23.732;2023-02-12T01:27:45;63415.81;;;-142.78;100.00
12777;BME280;6452;41.572;23.732;2023-02-12T01:30:12;63415.81;;;-142.78;100.00
12777;BME280;6452;41.572;23.732;2023-02-12T01:32:41;63415.81;;;-142.78;100.00
12777;BME280;6452;41.572;23.732;2023-02-12T01:35:09;63415.81;;;-142.78;100.00
12777;BME280;6452;41.572;23.732;2023-02-12T01:37:36;63415.81;;;-142.78;100.00
12777;BME280;6452;41.572;23.732;2023-02-12T01:40:03;63415.81;;;-142.78;100.00
12777;BME280;6452;41.572;23.732;2023-02-12T01:42:30;63415.81;;;-142.78;100.00
12777;BME280;6452;41.572;23.732;2023-02-12T01:47:39;63415.81;;;-142.78;100.00
12777;BME280;6452;41.572;23.732;2023-02-12T01:50:07;63415.81;;;-142.78;100.00
12777;BME280;6452;41.572;23.732;2023-02-12T01:52:37;63415.81;;;-142.78;100.00
12777;BME280;6452;41.572;23.732;2023-02-12T01:55:06;63415.81;;;-142.78;100.00
12777;BME280;6452;41.572;23.732;2023-02-12T01:57:38;63415.81;;;-142.78;100.00
12777;BME280;6452;41.572;23.732;2023-02-12T02:00:08;63415.81;;;-142.78;100.00
12777;BME280;6452;41.572;23.732;2023-02-12T02:02:35;63415.81;;;-142.78;100.00
12777;BME280;6452;41.572;23.732;2023-02-12T02:05:03;63415.81;;;-142.78;100.00
12777;BME280;6452;41.572;23.732;2023-02-12T02:07:31;63415.81;;;-142.78;100.00
12777;BME280;6452;41.572;23.732;2023-02-12T02:09:58;63415.81;;;-142.79;100.00
12777;BME280;6452;41.572;23.732;2023-02-12T02:12:26;63415.81;;;23.37;100.00
12777;BME280;6452;41.572;23.732;2023-02-12T02:15:11;63415.81;;;-142.78;100.00
12777;BME280;6452;41.572;23.732;2023-02-12T02:18:03;63415.81;;;23.70;100.00
12777;BME280;6452;41.572;23.732;2023-02-12T02:29:19;63415.81;;;23.37;100.00
12777;BME280;6452;41.572;23.732;2023-02-12T02:31:53;63415.81;;;23.37;100.00
12777;BME280;6452;41.572;23.732;2023-02-12T02:37:31;63415.81;;;24.35;100.00
12777;BME280;6452;41.572;23.732;2023-02-12T02:40:29;63415.81;;;-142.78;100.00
12777;BME280;6452;41.572;23.732;2023-02-12T02:43:01;63415.81;;;-142.78;100.00
12777;BME280;6452;41.572;23.732;2023-02-12T02:45:40;63415.81;;;-142.78;100.00
12777;BME280;6452;41.572;23.732;2023-02-12T02:48:16;63415.81;;;23.37;100.00
12777;BME280;6452;41.572;23.732;2023-02-12T02:50:58;63415.81;;;23.37;100.00
12777;BME280;6452;41.572;23.732;2023-02-12T02:53:30;63415.81;;;-142.78;100.00
12777;BME280;6452;41.572;23.732;2023-02-12T02:56:01;63415.81;;;-142.78;100.00
12777;BME280;6452;41.572;23.732;2023-02-12T02:58:35;63415.81;;;-142.78;100.00
12777;BME280;6452;41.572;23.732;2023-02-12T03:01:08;63415.81;;;28.24;100.00
12777;BME280;6452;41.572;23.732;2023-02-12T03:03:49;63415.81;;;-142.79;100.00
12777;BME280;6452;41.572;23.732;2023-02-12T03:06:40;63415.81;;;23.70;100.00
12777;BME280;6452;41.572;23.732;2023-02-12T03:09:41;63415.81;;;23.37;100.00
12777;BME280;6452;41.572;23.732;2023-02-12T03:12:22;63415.81;;;23.70;100.00
12777;BME280;6452;41.572;23.732;2023-02-12T03:17:41;63415.81;;;24.35;100.00
12777;BME280;6452;41.572;23.732;2023-02-12T03:20:32;63415.81;;;23.37;100.00
12777;BME280;6452;41.572;23.732;2023-02-12T03:23:10;63415.81;;;23.70;100.00
12777;BME280;6452;41.572;23.732;2023-02-12T03:25:49;63415.81;;;23.37;100.00
12777;BME280;6452;41.572;23.732;2023-02-12T03:28:28;63415.81;;;-142.79;100.00
12777;BME280;6452;41.572;23.732;2023-02-12T03:31:25;63415.81;;;-142.79;100.00
12777;BME280;6452;41.572;23.732;2023-02-12T03:36:54;63415.81;;;24.35;100.00
12777;BME280;6452;41.572;23.732;2023-02-12T03:42:13;63415.81;;;23.37;100.00
12777;BME280;6452;41.572;23.732;2023-02-12T03:44:49;63415.81;;;23.37;100.00
12777;BME280;6452;41.572;23.732;2023-02-12T03:47:21;63415.81;;;23.37;100.00
12777;BME280;6452;41.572;23.732;2023-02-12T03:52:28;63415.81;;;24.35;100.00
12777;BME280;6452;41.572;23.732;2023-02-12T03:54:55;63415.81;;;-142.78;100.00
12777;BME280;6452;41.572;23.732;2023-02-12T03:57:26;63415.81;;;-142.78;100.00
12777;BME280;6452;41.572;23.732;2023-02-12T04:00:03;63415.81;;;-142.78;100.00
12777;BME280;6452;41.572;23.732;2023-02-12T04:02:29;63415.81;;;-142.78;100.00
12777;BME280;6452;41.572;23.732;2023-02-12T04:04:56;63415.81;;;-142.78;100.00
12777;BME280;6452;41.572;23.732;2023-02-12T04:07:23;63415.81;;;-142.78;100.00
12777;BME280;6452;41.572;23.732;2023-02-12T04:09:50;63415.81;;;-142.78;100.00
12777;BME280;6452;41.572;23.732;2023-02-12T04:17:49;63415.81;;;-142.78;100.00
12777;BME280;6452;41.572;23.732;2023-02-12T04:34:06;63415.81;;;-142.78;100.00
12777;BME280;6452;41.572;23.732;2023-02-12T04:36:43;63415.81;;;-142.78;100.00
12777;BME280;6452;41.572;23.732;2023-02-12T04:39:17;63415.81;;;-142.78;100.00
12777;BME280;6452;41.572;23.732;2023-02-12T04:41:45;63415.81;;;23.05;100.00
12777;BME280;6452;41.572;23.732;2023-02-12T04:44:21;63415.81;;;23.70;100.00
12777;BME280;6452;41.572;23.732;2023-02-12T04:46:48;63415.81;;;23.37;100.00
12777;BME280;6452;41.572;23.732;2023-02-12T04:49:16;63415.81;;;-142.79;100.00
12777;BME280;6452;41.572;23.732;2023-02-12T04:51:43;63415.81;;;23.05;100.00
12777;BME280;6452;41.572;23.732;2023-02-12T04:54:15;63415.81;;;23.70;100.00
12777;BME280;6452;41.572;23.732;2023-02-12T04:56:42;63415.81;;;-142.79;100.00
12777;BME280;6452;41.572;23.732;2023-02-12T04:59:08;63415.81;;;-142.79;100.00
12777;BME280;6452;41.572;23.732;2023-02-12T05:01:36;63415.81;;;24.35;100.00
12777;BME280;6452;41.572;23.732;2023-02-12T05:04:03;63415.81;;;24.35;100.00
12777;BME280;6452;41.572;23.732;2023-02-12T05:06:32;63415.81;;;23.37;100.00
12777;BME280;6452;41.572;23.732;2023-02-12T05:08:59;63415.81;;;64.56;100.00
12777;BME280;6452;41.572;23.732;2023-02-12T05:11:26;63415.81;;;23.70;100.00
12777;BME280;6452;41.572;23.732;2023-02-12T05:13:53;63415.81;;;23.70;100.00
12777;BME280;6452;41.572;23.732;2023-02-12T05:16:20;63415.81;;;23.70;100.00
12777;BME280;6452;41.572;23.732;2023-02-12T05:18:48;63415.81;;;23.37;100.00
12777;BME280;6452;41.572;23.732;2023-02-12T05:21:15;63415.81;;;23.37;100.00
12777;BME280;6452;41.572;23.732;2023-02-12T05:23:42;63415.81;;;23.37;100.00
12777;BME280;6452;41.572;23.732;2023-02-12T05:26:11;63415.81;;;24.35;100.00
12777;BME280;6452;41.572;23.732;2023-02-12T05:28:39;63415.81;;;24.35;100.00
12777;BME280;6452;41.572;23.732;2023-02-12T05:31:07;63415.81;;;-142.79;100.00
12777;BME280;6452;41.572;23.732;2023-02-12T05:33:34;63415.81;;;-142.79;100.00
12777;BME280;6452;41.572;23.732;2023-02-12T05:36:10;63415.81;;;24.35;100.00
12777;BME280;6452;41.572;23.732;2023-02-12T05:38:38;63415.81;;;23.05;100.00
12777;BME280;6452;41.572;23.732;2023-02-12T05:41:07;63415.81;;;24.35;100.00
12777;BME280;6452;41.572;23.732;2023-02-12T05:43:33;63415.81;;;23.37;100.00
12777;BME280;6452;41.572;23.732;2023-02-12T05:46:01;63415.81;;;23.70;100.00
12777;BME280;6452;41.572;23.732;2023-02-12T05:48:28;63415.81;;;23.37;100.00
12777;BME280;6452;41.572;23.732;2023-02-12T05:50:59;63415.81;;;24.35;100.00
12777;BME280;6452;41.572;23.732;2023-02-12T05:53:26;63415.81;;;-142.79;100.00
12777;BME280;6452;41.572;23.732;2023-02-12T05:55:53;63415.81;;;23.70;100.00
12777;BME280;6452;41.572;23.732;2023-02-12T05:58:20;63415.81;;;24.35;100.00
12777;BME280;6452;41.572;23.732;2023-02-12T06:00:46;63415.81;;;25.64;100.00
12777;BME280;6452;41.572;23.732;2023-02-12T06:03:13;63415.81;;;24.35;100.00
12777;BME280;6452;41.572;23.732;2023-02-12T06:05:42;63415.81;;;24.35;100.00
12777;BME280;6452;41.572;23.732;2023-02-12T06:08:09;63415.81;;;24.35;100.00
12777;BME280;6452;41.572;23.732;2023-02-12T06:10:36;63415.81;;;23.37;100.00
12777;BME280;6452;41.572;23.732;2023-02-12T06:13:02;63415.81;;;-142.79;100.00
12777;BME280;6452;41.572;23.732;2023-02-12T06:15:29;63415.81;;;23.37;100.00
12777;BME280;6452;41.572;23.732;2023-02-12T06:17:56;63415.81;;;23.37;100.00
12777;BME280;6452;41.572;23.732;2023-02-12T06:22:52;63415.81;;;23.70;100.00
12777;BME280;6452;41.572;23.732;2023-02-12T06:25:19;63415.81;;;-142.79;100.00
12777;BME280;6452;41.572;23.732;2023-02-12T06:27:46;63415.81;;;23.37;100.00
12777;BME280;6452;41.572;23.732;2023-02-12T06:30:12;63415.81;;;23.37;100.00
12777;BME280;6452;41.572;23.732;2023-02-12T06:32:40;63415.81;;;-142.79;100.00
12777;BME280;6452;41.572;23.732;2023-02-12T06:35:07;63415.81;;;23.70;100.00
12777;BME280;6452;41.572;23.732;2023-02-12T06:37:34;63415.81;;;23.21;100.00
12777;BME280;6452;41.572;23.732;2023-02-12T06:40:06;63415.81;;;23.37;100.00
12777;BME280;6452;41.572;23.732;2023-02-12T06:42:32;63415.81;;;24.35;100.00
12777;BME280;6452;41.572;23.732;2023-02-12T06:44:59;63415.81;;;23.37;100.00
12777;BME280;6452;41.572;23.732;2023-02-12T06:47:26;63415.81;;;-142.79;100.00
12777;BME280;6452;41.572;23.732;2023-02-12T06:52:19;63415.81;;;23.37;100.00
12777;BME280;6452;41.572;23.732;2023-02-12T06:54:46;63415.81;;;23.37;100.00
12777;BME280;6452;41.572;23.732;2023-02-12T06:59:38;63415.81;;;25.64;100.00
12777;BME280;6452;41.572;23.732;2023-02-12T07:02:04;63415.81;;;-142.79;100.00
12777;BME280;6452;41.572;23.732;2023-02-12T07:04:37;63415.81;;;23.70;100.00
12777;BME280;6452;41.572;23.732;2023-02-12T07:07:04;63415.81;;;23.21;100.00
12777;BME280;6452;41.572;23.732;2023-02-12T07:09:30;63415.81;;;25.64;100.00
12777;BME280;6452;41.572;23.732;2023-02-12T07:11:59;63415.81;;;23.21;100.00
12777;BME280;6452;41.572;23.732;2023-02-12T07:14:26;63415.81;;;23.21;100.00
12777;BME280;6452;41.572;23.732;2023-02-12T07:16:54;63415.81;;;-142.78;100.00
12777;BME280;6452;41.572;23.732;2023-02-12T07:19:20;63415.81;;;-142.78;100.00
12777;BME280;6452;41.572;23.732;2023-02-12T07:21:46;63415.81;;;-142.78;100.00
12777;BME280;6452;41.572;23.732;2023-02-12T07:24:13;63415.81;;;-142.78;100.00
12777;BME280;6452;41.572;23.732;2023-02-12T07:26:40;63415.81;;;-142.78;100.00
12777;BME280;6452;41.572;23.732;2023-02-12T07:29:08;63415.81;;;-142.78;100.00
12777;BME280;6452;41.572;23.732;2023-02-12T07:31:34;63415.81;;;-142.78;100.00
12777;BME280;6452;41.572;23.732;2023-02-12T07:34:00;63415.81;;;-142.78;100.00
12777;BME280;6452;41.572;23.732;2023-02-12T07:36:31;63415.81;;;-142.78;100.00
12777;BME280;6452;41.572;23.732;2023-02-12T07:38:58;63415.81;;;23.70;100.00
12777;BME280;6452;41.572;23.732;2023-02-12T07:41:27;63415.81;;;23.37;100.00
12777;BME280;6452;41.572;23.732;2023-02-12T07:43:55;63415.81;;;23.05;100.00
12777;BME280;6452;41.572;23.732;2023-02-12T07:46:27;63415.81;;;23.37;100.00
12777;BME280;6452;41.572;23.732;2023-02-12T07:51:23;63415.81;;;23.37;100.00
12777;BME280;6452;41.572;23.732;2023-02-12T07:53:49;63415.81;;;-142.78;100.00
12777;BME280;6452;41.572;23.732;2023-02-12T07:56:19;63415.81;;;-142.78;100.00
12777;BME280;6452;41.572;23.732;2023-02-12T07:58:50;63415.81;;;-142.78;100.00
12777;BME280;6452;41.572;23.732;2023-02-12T08:01:18;63415.81;;;-142.78;100.00
12777;BME280;6452;41.572;23.732;2023-02-12T08:03:47;63415.81;;;-142.78;100.00
12777;BME280;6452;41.572;23.732;2023-02-12T08:06:16;63415.81;;;-142.78;100.00
12777;BME280;6452;41.572;23.732;2023-02-12T08:08:42;63415.81;;;23.37;100.00
12777;BME280;6452;41.572;23.732;2023-02-12T08:11:10;63415.81;;;-142.79;100.00
12777;BME280;6452;41.572;23.732;2023-02-12T08:13:40;63415.81;;;23.37;100.00
12777;BME280;6452;41.572;23.732;2023-02-12T08:16:09;63415.81;;;23.21;100.00
12777;BME280;6452;41.572;23.732;2023-02-12T08:18:36;63415.81;;;-142.79;100.00
12777;BME280;6452;41.572;23.732;2023-02-12T08:21:04;63415.81;;;23.21;100.00
12777;BME280;6452;41.572;23.732;2023-02-12T08:23:31;63415.81;;;23.37;100.00
12777;BME280;6452;41.572;23.732;2023-02-12T08:31:02;63415.81;;;24.35;100.00
12777;BME280;6452;41.572;23.732;2023-02-12T08:33:28;63415.81;;;23.21;100.00
12777;BME280;6452;41.572;23.732;2023-02-12T08:36:16;63415.81;;;23.37;100.00
12777;BME280;6452;41.572;23.732;2023-02-12T08:38:44;63415.81;;;23.21;100.00
12777;BME280;6452;41.572;23.732;2023-02-12T08:41:13;63415.81;;;23.21;100.00
12777;BME280;6452;41.572;23.732;2023-02-12T08:43:42;63415.81;;;23.37;100.00
12777;BME280;6452;41.572;23.732;2023-02-12T08:46:20;63415.81;;;23.70;100.00
12777;BME280;6452;41.572;23.732;2023-02-12T08:48:47;63415.81;;;23.70;100.00
12777;BME280;6452;41.572;23.732;2023-02-12T08:51:18;63415.81;;;23.21;100.00
12777;BME280;6452;41.572;23.732;2023-02-12T08:53:49;63415.81;;;28.24;100.00
12777;BME280;6452;41.572;23.732;2023-02-12T08:56:16;63415.81;;;23.37;100.00
12777;BME280;6452;41.572;23.732;2023-02-12T08:58:43;63415.81;;;23.70;100.00
12777;BME280;6452;41.572;23.732;2023-02-12T09:01:16;63415.81;;;23.21;100.00
12777;BME280;6452;41.572;23.732;2023-02-12T09:03:44;63415.81;;;23.21;100.00
12777;BME280;6452;41.572;23.732;2023-02-12T09:06:16;63415.81;;;33.42;100.00
12777;BME280;6452;41.572;23.732;2023-02-12T09:08:42;63415.81;;;-142.79;100.00
12777;BME280;6452;41.572;23.732;2023-02-12T09:11:16;63415.81;;;23.13;100.00
12777;BME280;6452;41.572;23.732;2023-02-12T09:13:45;63415.81;;;23.21;100.00
12777;BME280;6452;41.572;23.732;2023-02-12T09:16:13;63415.81;;;23.21;100.00
12777;BME280;6452;41.572;23.732;2023-02-12T09:18:40;63415.81;;;23.70;100.00
12777;BME280;6452;41.572;23.732;2023-02-12T09:21:08;63415.81;;;24.35;100.00
12777;BME280;6452;41.572;23.732;2023-02-12T09:23:36;63415.81;;;23.70;100.00
12777;BME280;6452;41.572;23.732;2023-02-12T09:26:03;63415.81;;;23.70;100.00
12777;BME280;6452;41.572;23.732;2023-02-12T09:28:30;63415.81;;;23.37;100.00
12777;BME280;6452;41.572;23.732;2023-02-12T09:30:57;63415.81;;;-142.79;100.00
12777;BME280;6452;41.572;23.732;2023-02-12T09:33:27;63415.81;;;23.37;100.00
12777;BME280;6452;41.572;23.732;2023-02-12T09:35:54;63415.81;;;-142.79;100.00
12777;BME280;6452;41.572;23.732;2023-02-12T09:38:20;63415.81;;;23.13;100.00
12777;BME280;6452;41.572;23.732;2023-02-12T09:43:51;63415.81;;;23.21;100.00
12777;BME280;6452;41.572;23.732;2023-02-12T09:51:21;63415.81;;;23.21;100.00
12777;BME280;6452;41.572;23.732;2023-02-12T09:53:49;63415.81;;;23.21;100.00
12777;BME280;6452;41.572;23.732;2023-02-12T09:56:22;63415.81;;;24.35;100.00
12777;BME280;6452;41.572;23.732;2023-02-12T09:58:55;63415.81;;;24.35;100.00
12777;BME280;6452;41.572;23.732;2023-02-12T10:01:25;63415.81;;;-142.79;100.00
12777;BME280;6452;41.572;23.732;2023-02-12T10:03:52;63415.81;;;23.21;100.00
12777;BME280;6452;41.572;23.732;2023-02-12T10:06:24;63415.81;;;23.70;100.00
12777;BME280;6452;41.572;23.732;2023-02-12T10:11:46;63415.81;;;23.21;100.00
12777;BME280;6452;41.572;23.732;2023-02-12T10:17:36;63415.81;;;23.21;100.00
12777;BME280;6452;41.572;23.732;2023-02-12T10:23:14;63415.81;;;24.35;100.00
12777;BME280;6452;41.572;23.732;2023-02-12T10:28:44;63415.81;;;-142.78;100.00
12777;BME280;6452;41.572;23.732;2023-02-12T10:33:49;63415.81;;;-142.78;100.00
12777;BME280;6452;41.572;23.732;2023-02-12T10:39:24;63415.81;;;-142.78;100.00
12777;BME280;6452;41.572;23.732;2023-02-12T10:41:57;63415.81;;;-142.78;100.00
12777;BME280;6452;41.572;23.732;2023-02-12T10:44:26;63415.81;;;-142.78;100.00
12777;BME280;6452;41.572;23.732;2023-02-12T10:46:57;63415.81;;;-142.78;100.00
12777;BME280;6452;41.572;23.732;2023-02-12T10:49:23;63415.81;;;-142.78;100.00
12777;BME280;6452;41.572;23.732;2023-02-12T10:52:10;63415.81;;;-142.78;100.00
12777;BME280;6452;41.572;23.732;2023-02-12T10:54:44;63415.81;;;-142.78;100.00
12777;BME280;6452;41.572;23.732;2023-02-12T10:57:16;63415.81;;;-142.78;100.00
12777;BME280;6452;41.572;23.732;2023-02-12T10:59:45;63415.81;;;-142.78;100.00
12777;BME280;6452;41.572;23.732;2023-02-12T11:02:30;63415.81;;;-142.78;100.00
12777;BME280;6452;41.572;23.732;2023-02-12T11:04:57;63415.81;;;-142.78;100.00
12777;BME280;6452;41.572;23.732;2023-02-12T11:07:24;63415.81;;;-142.78;100.00
12777;BME280;6452;41.572;23.732;2023-02-12T11:09:53;63415.81;;;23.05;100.00
12777;BME280;6452;41.572;23.732;2023-02-12T11:12:34;63415.81;;;-142.78;100.00
12777;BME280;6452;41.572;23.732;2023-02-12T11:15:23;63415.81;;;23.05;100.00
12777;BME280;6452;41.572;23.732;2023-02-12T11:18:05;63415.81;;;23.05;100.00
12777;BME280;6452;41.572;23.732;2023-02-12T11:20:38;63415.81;;;23.05;100.00
12777;BME280;6452;41.572;23.732;2023-02-12T11:25:59;63415.81;;;23.05;100.00
12777;BME280;6452;41.572;23.732;2023-02-12T11:28:26;63415.81;;;23.05;100.00
12777;BME280;6452;41.572;23.732;2023-02-12T11:30:53;63415.81;;;23.05;100.00
12777;BME280;6452;41.572;23.732;2023-02-12T11:33:34;63415.81;;;23.05;100.00
12777;BME280;6452;41.572;23.732;2023-02-12T11:36:22;63415.81;;;23.05;100.00
12777;BME280;6452;41.572;23.732;2023-02-12T11:38:55;63415.81;;;23.21;100.00
12777;BME280;6452;41.572;23.732;2023-02-12T11:41:37;63415.81;;;23.05;100.00
12777;BME280;6452;41.572;23.732;2023-02-12T11:46:35;63415.81;;;23.37;100.00
12777;BME280;6452;41.572;23.732;2023-02-12T11:49:06;63415.81;;;23.21;100.00
12777;BME280;6452;41.572;23.732;2023-02-12T11:51:35;63415.81;;;23.37;100.00
12777;BME280;6452;41.572;23.732;2023-02-12T11:54:04;63415.81;;;23.70;100.00
12777;BME280;6452;41.572;23.732;2023-02-12T11:56:42;63415.81;;;23.70;100.00
12777;BME280;6452;41.572;23.732;2023-02-12T11:59:20;63415.81;;;23.13;100.00
12777;BME280;6452;41.572;23.732;2023-02-12T12:01:54;63415.81;;;23.13;100.00
12777;BME280;6452;41.572;23.732;2023-02-12T12:04:27;63415.81;;;23.70;100.00
12777;BME280;6452;41.572;23.732;2023-02-12T12:07:00;63415.81;;;23.13;100.00
12777;BME280;6452;41.572;23.732;2023-02-12T12:12:28;63415.81;;;23.13;100.00
12777;BME280;6452;41.572;23.732;2023-02-12T12:15:06;63415.81;;;23.21;100.00
12777;BME280;6452;41.572;23.732;2023-02-12T12:18:20;63415.81;;;23.13;100.00
12777;BME280;6452;41.572;23.732;2023-02-12T12:24:25;63415.81;;;23.13;100.00
12777;BME280;6452;41.572;23.732;2023-02-12T12:27:40;63415.81;;;23.13;100.00
12777;BME280;6452;41.572;23.732;2023-02-12T12:30:26;63415.81;;;23.37;100.00
12777;BME280;6452;41.572;23.732;2023-02-12T12:32:59;63415.81;;;23.13;100.00
12777;BME280;6452;41.572;23.732;2023-02-12T12:35:43;63415.81;;;23.13;100.00
12777;BME280;6452;41.572;23.732;2023-02-12T12:38:37;63415.81;;;23.13;100.00
12777;BME280;6452;41.572;23.732;2023-02-12T12:49:28;63415.81;;;23.13;100.00
12777;BME280;6452;41.572;23.732;2023-02-12T12:52:29;63415.81;;;23.13;100.00
12777;BME280;6452;41.572;23.732;2023-02-12T12:55:06;63415.81;;;-142.79;100.00
12777;BME280;6452;41.572;23.732;2023-02-12T13:06:50;63415.81;;;23.13;100.00
12777;BME280;6452;41.572;23.732;2023-02-12T13:09:07;63415.81;;;23.13;100.00
12777;BME280;6452;41.572;23.732;2023-02-12T13:14:17;63415.81;;;23.13;100.00
12777;BME280;6452;41.572;23.732;2023-02-12T13:17:04;63415.81;;;23.09;100.00
12777;BME280;6452;41.572;23.732;2023-02-12T13:19:56;63415.81;;;23.13;100.00
12777;BME280;6452;41.572;23.732;2023-02-12T13:22:30;63415.81;;;23.13;100.00
12777;BME280;6452;41.572;23.732;2023-02-12T13:25:06;63415.81;;;23.13;100.00
12777;BME280;6452;41.572;23.732;2023-02-12T13:27:42;63415.81;;;23.13;100.00
12777;BME280;6452;41.572;23.732;2023-02-12T13:33:06;63415.81;;;23.13;100.00
12777;BME280;6452;41.572;23.732;2023-02-12T13:35:52;63415.81;;;23.05;100.00
12777;BME280;6452;41.572;23.732;2023-02-12T13:38:44;63415.81;;;23.13;100.00
12777;BME280;6452;41.572;23.732;2023-02-12T13:41:13;63415.81;;;23.21;100.00
12777;BME280;6452;41.572;23.732;2023-02-12T13:46:43;63415.81;;;23.13;100.00
12777;BME280;6452;41.572;23.732;2023-02-12T13:51:57;63415.81;;;23.37;100.00
12777;BME280;6452;41.572;23.732;2023-02-12T13:54:47;63415.81;;;23.13;100.00
12777;BME280;6452;41.572;23.732;2023-02-12T13:57:20;63415.81;;;23.13;100.00
12777;BME280;6452;41.572;23.732;2023-02-12T13:59:50;63415.81;;;23.05;100.00
12777;BME280;6452;41.572;23.732;2023-02-12T14:04:56;63415.81;;;23.13;100.00
12777;BME280;6452;41.572;23.732;2023-02-12T14:07:44;63415.81;;;23.13;100.00
12777;BME280;6452;41.572;23.732;2023-02-12T14:10:26;63415.81;;;23.13;100.00
12777;BME280;6452;41.572;23.732;2023-02-12T14:12:55;63415.81;;;23.05;100.00
12777;BME280;6452;41.572;23.732;2023-02-12T14:15:34;63415.81;;;23.37;100.00
12777;BME280;6452;41.572;23.732;2023-02-12T14:20:32;63415.81;;;23.37;100.00
12777;BME280;6452;41.572;23.732;2023-02-12T14:23:26;63415.81;;;23.13;100.00
12777;BME280;6452;41.572;23.732;2023-02-12T14:36:43;63415.81;;;23.13;100.00
12777;BME280;6452;41.572;23.732;2023-02-12T14:41:49;63415.81;;;23.13;100.00
12777;BME280;6452;41.572;23.732;2023-02-12T14:46:57;63415.81;;;23.21;100.00
12777;BME280;6452;41.572;23.732;2023-02-12T14:57:31;63415.81;;;23.13;100.00
12777;BME280;6452;41.572;23.732;2023-02-12T15:03:22;63415.81;;;23.13;100.00
12777;BME280;6452;41.572;23.732;2023-02-12T15:05:44;63415.81;;;28.24;100.00
12777;BME280;6452;41.572;23.732;2023-02-12T15:08:35;63415.81;;;23.21;100.00
12777;BME280;6452;41.572;23.732;2023-02-12T15:11:21;63415.81;;;23.13;100.00
12777;BME280;6452;41.572;23.732;2023-02-12T15:14:03;63415.81;;;-142.79;100.00
12777;BME280;6452;41.572;23.732;2023-02-12T15:21:58;63415.81;;;23.70;100.00
12777;BME280;6452;41.572;23.732;2023-02-12T15:24:25;63415.81;;;23.13;100.00
12777;BME280;6452;41.572;23.732;2023-02-12T15:26:58;63415.81;;;23.05;100.00
12777;BME280;6452;41.572;23.732;2023-02-12T15:29:29;63415.81;;;23.13;100.00
12777;BME280;6452;41.572;23.732;2023-02-12T15:32:01;63415.81;;;23.13;100.00
12777;BME280;6452;41.572;23.732;2023-02-12T15:34:33;63415.81;;;23.37;100.00
12777;BME280;6452;41.572;23.732;2023-02-12T15:37:04;63415.81;;;23.13;100.00
12777;BME280;6452;41.572;23.732;2023-02-12T15:39:51;63415.81;;;23.13;100.00
12777;BME280;6452;41.572;23.732;2023-02-12T15:42:31;63415.81;;;23.13;100.00
12777;BME280;6452;41.572;23.732;2023-02-12T15:47:33;63415.81;;;23.37;100.00
12777;BME280;6452;41.572;23.732;2023-02-12T15:49:59;63415.81;;;24.35;100.00
12777;BME280;6452;41.572;23.732;2023-02-12T15:52:45;63415.81;;;23.13;100.00